• Join FlightAware (Why Join?)
  • Login
  • US Flag 
02:48PM EDT


 

Airport Tracker/Info


-or-


 

Live Flight TrackerFlight Track Log ✈ SWA1276 ✈ 22-Apr-2013 ✈ KJAX - KBWI

Flight Track Log - Related Links

Times and Time Zones

All times are in EDT time to prevent confusion due to time zone crossing. See the SWA1276 flight status page for this flight to view local times or setup timezone preferences in your user account.

Time Position Orientation Groundspeed Altitude Reporting Facility
EDT Latitude Longitude Course Direction KTS MPH feet Rate Location/Type
07:28PM 30.5275 -81.6386 52° Northeast 198 228 3,300  Level Jacksonville Center
07:28PM 30.5611 -81.6453 350° North 231 266 4,900 3,000 Climbing Jacksonville Center
07:29PM 30.5861 -81.6475 356° North 257 296 6,100 3,360 Climbing Jacksonville Center
07:29PM 30.6364 -81.6539 354° North 269 310 8,300 3,300 Climbing Jacksonville Center
07:30PM 30.7094 -81.6603 356° North 287 330 11,400 2,580 Climbing Jacksonville Center
07:31PM 30.8033 -81.6422 North 301 346 13,500 2,460 Climbing Jacksonville Center
07:32PM 30.9072 -81.6069 16° North 347 399 16,400 2,940 Climbing Jacksonville Center
07:33PM 31.0156 -81.5714 16° North 371 427 19,400 2,700 Climbing Jacksonville Center
07:34PM 31.1278 -81.5358 15° North 406 467 21,900 2,400 Climbing Jacksonville Center
07:35PM 31.2444 -81.4978 16° North 420 483 24,200 2,100 Climbing Jacksonville Center
07:36PM 31.3547 -81.4597 16° North 446 513 26,200 1,980 Climbing Jacksonville Center
07:37PM 31.4917 -81.4039 19° North 466 536 28,200 2,040 Climbing Jacksonville Center
07:38PM 31.6056 -81.3217 32° Northeast 476 548 30,300 1,860 Climbing Jacksonville Center
07:39PM 31.7069 -81.2417 34° Northeast 488 562 32,000 1,320 Climbing Jacksonville Center
07:40PM 31.8331 -81.1417 34° Northeast 488 562 33,000 540 Climbing Jacksonville Center
07:41PM 31.9486 -81.0514 34° Northeast 495 570 33,100 1,080 Climbing Jacksonville Center
07:42PM 32.0642 -80.9583 34° Northeast 500 575 35,200 1,860 Climbing Jacksonville Center
07:43PM 32.1797 -80.8725 32° Northeast 491 565 36,900 1,560 Climbing Jacksonville Center
07:44PM 32.2806 -80.7917 34° Northeast 484 557 38,400 1,020 Climbing Jacksonville Center
07:45PM 32.3878 -80.7031 35° Northeast 479 551 39,000 300 Climbing Jacksonville Center
07:46PM 32.5011 -80.6167 33° Northeast 479 551 39,000  Level Jacksonville Center
07:47PM 32.6100 -80.5275 35° Northeast 479 551 39,000  Level Jacksonville Center
07:48PM 32.7231 -80.4381 34° Northeast 479 551 39,000  Level Jacksonville Center
07:49PM 32.8361 -80.3461 34° Northeast 479 551 39,000  Level Jacksonville Center
07:50PM 32.9511 -80.2536 34° Northeast 479 551 39,000  Level Jacksonville Center
07:51PM 33.0619 -80.1636 34° Northeast 479 551 39,000  Level Jacksonville Center
07:52PM 33.1869 -80.0606 35° Northeast 488 562 39,000  Level Jacksonville Center
07:53PM 33.2975 -79.9725 34° Northeast 488 562 39,000  Level Jacksonville Center
07:54PM 33.4083 -79.8844 34° Northeast 482 555 39,000  Level Jacksonville Center
07:55PM 33.5186 -79.7933 35° Northeast 477 549 39,000  Level Jacksonville Center
07:56PM 33.6311 -79.7022 34° Northeast 477 549 39,000  Level Jacksonville Center
07:57PM 33.7414 -79.6083 35° Northeast 477 549 39,000  Level Jacksonville Center
07:58PM 33.8539 -79.5192 33° Northeast 477 549 39,000  Level Jacksonville Center
08:00PM 34.0628 -79.3444 35° Northeast 455 524 39,000  Level Washington Center
08:01PM 34.1722 -79.2539 34° Northeast 461 531 39,000  Level Washington Center
08:02PM 34.2728 -79.1656 36° Northeast 466 536 39,000  Level Washington Center
08:03PM 34.3819 -79.0747 34° Northeast 478 550 39,000 -60 Level Washington Center
08:04PM 34.5114 -78.9969 26° Northeast 478 550 38,900 -600 Descending Washington Center
08:05PM 34.6236 -78.9361 24° Northeast 478 550 37,900 -960 Descending Washington Center
08:06PM 34.7508 -78.8656 24° Northeast 478 550 37,000 -480 Descending Washington Center
08:07PM 34.8781 -78.7972 24° Northeast 490 564 37,000  Level Washington Center
08:08PM 35.0050 -78.7286 24° Northeast 490 564 37,000  Level Washington Center
08:09PM 35.1339 -78.6600 24° Northeast 490 564 37,000  Level Washington Center
08:10PM 35.2611 -78.5886 25° Northeast 490 564 37,000 -360 Level Washington Center
08:11PM 35.4069 -78.5100 24° Northeast 500 575 36,300 -840 Descending Washington Center
08:12PM 35.5233 -78.4453 24° Northeast 510 587 35,400 -660 Descending Washington Center
08:13PM 35.6733 -78.3636 24° Northeast 522 601 35,000 -240 Descending Washington Center
08:14PM 35.8064 -78.2889 24° Northeast 522 601 35,000  Level Washington Center
08:15PM 35.9417 -78.2167 23° Northeast 522 601 35,000  Level Washington Center
08:16PM 36.0725 -78.1411 25° Northeast 522 601 35,000  Level Washington Center
08:17PM 36.2078 -78.0633 25° Northeast 527 606 35,000  Level Washington Center
08:18PM 36.3428 -77.9900 24° Northeast 527 606 35,000 -1,320 Level Washington Center
08:19PM 36.4736 -77.9114 26° Northeast 527 606 32,400 -3,000 Descending Washington Center
08:20PM 36.6128 -77.8356 24° Northeast 527 606 29,100 -1,740 Descending Washington Center
08:21PM 36.7458 -77.7589 25° Northeast 527 606 29,000 -600 Descending Washington Center
08:22PM 36.8744 -77.6819 26° Northeast 521 600 28,000 -960 Descending Washington Center
08:23PM 37.0028 -77.6100 24° Northeast 515 593 27,100 -960 Descending Washington Center
08:24PM 37.1272 -77.5378 25° Northeast 500 575 26,100 -1,020 Descending Washington Center
08:25PM 37.2469 -77.4703 24° Northeast 480 552 25,100 -600 Descending Washington Center
08:26PM 37.3650 -77.4000 25° Northeast 469 540 25,000 -300 Descending Washington Center
08:27PM 37.4828 -77.3322 25° Northeast 464 534 24,600 -1,020 Descending Washington Center
08:28PM 37.6042 -77.3008 12° North 458 527 23,000 -840 Descending Washington Center
08:29PM 37.7192 -77.2747 10° North 434 499 23,000 -180 Level Washington Center
08:30PM 37.8344 -77.2508 North 427 491 22,700 -720 Descending Washington Center
08:31PM 37.9450 -77.2322 North 417 480 21,600 -960 Descending Washington Center
08:32PM 38.0239 -77.2683 340° North 380 437 20,800 -960 Descending Washington Center
08:33PM 38.1322 -77.2839 354° North 364 419 19,700 -1,260 Descending Washington Center
08:34PM 38.2267 -77.2278 25° Northeast 364 419 18,300 -1,620 Descending Washington Center
08:35PM 38.3214 -77.1744 24° Northeast 359 413 16,500 -1,800 Descending Washington Center
08:36PM 38.4075 -77.1100 30° Northeast 359 413 14,800 -1,800 Descending Washington Center
08:37PM 38.4733 -77.0289 44° Northeast 343 395 13,000 -1,440 Descending Washington Center
08:38PM 38.5367 -76.9506 44° Northeast 325 374 12,000 -840 Descending Washington Center
08:39PM 38.6000 -76.8722 44° Northeast 315 362 11,400 -960 Descending Washington Center
08:40PM 38.6614 -76.8014 42° Northeast 303 349 10,100 -1,200 Descending Washington Center
08:41PM 38.7142 -76.7225 49° Northeast 298 343 9,000 -1,200 Descending Washington Center
08:42PM 38.7547 -76.6325 60° Northeast 292 336 7,700 -1,560 Descending Washington Center
08:43PM 38.7833 -76.5667 61° Northeast 292 336 6,600 -1,140 Descending Potomac TRACON
08:44PM 38.8500 -76.5333 21° North 281 323 5,900 -840 Descending Potomac TRACON
08:45PM 38.9167 -76.5667 339° North 267 307 5,000 -420 Descending Potomac TRACON
08:46PM 38.9833 -76.6167 330° Northwest 267 307 5,100 -300 Climbing Potomac TRACON
08:47PM 39.0167 -76.7000 297° West 248 285 4,400 -900 Descending Potomac TRACON
08:48PM 39.0500 -76.7667 303° West 248 285 3,400 -1,140 Descending Potomac TRACON
08:49PM 39.0833 -76.8333 303° West 240 276 2,300 -720 Descending Potomac TRACON
08:50PM 39.1333 -76.8833 322° Northwest 218 251 2,000 -180 Descending Potomac TRACON
08:51PM 39.1833 -76.8833 360° North 177 204 2,000  Level Potomac TRACON
08:52PM 39.1833 -76.8333 90° East 168 193 2,100 -300 Climbing Potomac TRACON
08:53PM 39.1833 -76.7833 90° East 147 169 1,500 -600 Descending Potomac TRACON
08:54PM 39.1833 -76.7333 90° East 125 144 900 -600 Descending Potomac TRACON
08:56PM 39.1667 -76.6667 96° East  Level FlightAware Approximate
09:03PM 39.1754 -76.6683 96° East  Level Estimated